createdAt,value
2019-01-10T00:01:55.196Z,10.93
2019-01-10T00:04:25.033Z,9.37
2019-01-10T00:06:55.097Z,13.07
2019-01-10T00:09:26.405Z,7.03
2019-01-10T00:11:56.420Z,11.07
2019-01-10T00:14:26.524Z,9.20
2019-01-10T00:16:58.643Z,13.30
2019-01-10T00:19:28.644Z,11.17
2019-01-10T00:21:58.515Z,10.73
2019-01-10T00:24:28.536Z,8.83
2019-01-10T00:26:59.337Z,8.83
2019-01-10T00:29:29.440Z,10.47
2019-01-10T00:31:59.165Z,11.13
2019-01-10T00:34:29.238Z,13.30
2019-01-10T00:37:00.002Z,15.63
2019-01-10T00:39:29.889Z,10.20
2019-01-10T00:41:59.728Z,8.77
2019-01-10T00:44:30.620Z,11.37
2019-01-10T00:47:00.512Z,10.27
2019-01-10T00:49:30.651Z,9.03
2019-01-10T00:52:00.598Z,8.77
2019-01-10T00:54:34.068Z,11.20
2019-01-10T00:57:04.812Z,16.53
2019-01-10T00:59:34.920Z,11.10
2019-01-10T01:02:05.640Z,10.47
2019-01-10T01:04:35.709Z,10.77
2019-01-10T01:07:08.527Z,10.20
2019-01-10T01:09:38.548Z,12.03
2019-01-10T01:12:08.417Z,10.83
2019-01-10T01:14:38.438Z,10.63
2019-01-10T01:17:08.517Z,14.87
2019-01-10T01:19:38.619Z,11.90
2019-01-10T01:22:08.724Z,12.45
2019-01-10T01:24:38.810Z,10.57
2019-01-10T01:27:08.887Z,7.93
2019-01-10T01:29:39.069Z,10.47
2019-01-10T01:32:10.000Z,10.17
2019-01-10T01:34:39.836Z,11.67
2019-01-10T01:37:09.791Z,10.93
2019-01-10T01:39:39.647Z,10.10
2019-01-10T01:42:09.447Z,13.40
2019-01-10T01:44:39.485Z,12.17
2019-01-10T01:47:09.419Z,14.00
2019-01-10T01:49:39.360Z,12.67
2019-01-10T01:52:12.196Z,11.63
2019-01-10T01:54:42.539Z,13.57
2019-01-10T01:57:12.712Z,12.20
2019-01-10T01:59:42.627Z,10.10
2019-01-10T02:02:13.752Z,12.30
2019-01-10T02:04:43.784Z,11.20
2019-01-10T02:07:13.865Z,11.40
2019-01-10T02:09:43.944Z,8.70
2019-01-10T02:12:14.415Z,12.00
2019-01-10T02:14:44.460Z,12.80
2019-01-10T02:17:14.623Z,12.23
2019-01-10T02:19:45.448Z,12.27
2019-01-10T02:22:15.196Z,11.37
2019-01-10T02:24:45.364Z,11.90
2019-01-10T02:27:15.590Z,15.40
2019-01-10T02:29:45.739Z,15.73
2019-01-10T02:32:15.722Z,11.70
2019-01-10T02:34:45.806Z,12.17
2019-01-10T02:37:15.816Z,13.97
2019-01-10T02:39:45.844Z,13.33
2019-01-10T02:42:15.877Z,16.13
2019-01-10T02:44:46.127Z,16.47
2019-01-10T02:47:15.914Z,13.87
2019-01-10T02:49:46.020Z,19.67
2019-01-10T02:52:15.901Z,11.53
2019-01-10T02:54:45.975Z,14.40
2019-01-10T02:57:16.032Z,12.57
2019-01-10T02:59:46.634Z,14.23
2019-01-10T03:02:16.744Z,11.30
2019-01-10T03:04:46.616Z,17.50
2019-01-10T03:07:16.945Z,13.53
2019-01-10T03:09:47.041Z,14.87
2019-01-10T03:12:17.599Z,11.90
2019-01-10T03:14:47.918Z,12.67
2019-01-10T03:17:17.768Z,12.90
2019-01-10T03:19:47.776Z,13.97
2019-01-10T03:22:18.091Z,12.33
2019-01-10T03:24:48.230Z,17.70
2019-01-10T03:27:18.928Z,15.33
2019-01-10T03:29:48.773Z,16.40
2019-01-10T03:32:18.724Z,17.97
2019-01-10T03:34:48.709Z,16.57
2019-01-10T03:37:19.686Z,17.73
2019-01-10T03:39:49.769Z,14.17
2019-01-10T03:42:19.901Z,18.30
2019-01-10T03:44:50.118Z,12.10
2019-01-10T03:47:25.921Z,17.93
2019-01-10T03:49:56.196Z,16.10
2019-01-10T03:52:26.338Z,15.00
2019-01-10T03:54:56.389Z,14.90
2019-01-10T03:57:26.560Z,15.17
2019-01-10T03:59:56.739Z,16.80
2019-01-10T04:02:26.796Z,13.60
2019-01-10T04:04:56.919Z,14.00
2019-01-10T04:07:26.865Z,17.10
2019-01-10T04:10:07.377Z,17.13
2019-01-10T04:12:37.431Z,15.23
2019-01-10T04:15:08.712Z,18.50
2019-01-10T04:17:41.461Z,16.90
2019-01-10T04:20:13.542Z,16.23
2019-01-10T04:22:44.073Z,15.63
2019-01-10T04:25:14.555Z,19.17
2019-01-10T04:27:45.210Z,15.93
2019-01-10T04:30:17.671Z,16.33
2019-01-10T04:32:48.475Z,18.50
2019-01-10T04:35:18.506Z,15.57
2019-01-10T04:37:48.651Z,15.43
2019-01-10T04:40:22.291Z,17.90
2019-01-10T04:42:52.286Z,23.77
2019-01-10T04:45:25.085Z,18.53
2019-01-10T04:47:55.340Z,21.23
2019-01-10T04:50:25.521Z,23.47
2019-01-10T04:52:55.461Z,16.57
2019-01-10T04:55:25.300Z,16.77
2019-01-10T04:57:55.817Z,23.47
2019-01-10T05:00:26.889Z,17.17
2019-01-10T05:02:56.959Z,16.57
2019-01-10T05:05:27.063Z,19.63
2019-01-10T05:07:57.844Z,21.57
2019-01-10T05:10:28.330Z,20.90
2019-01-10T05:12:58.868Z,21.47
2019-01-10T05:15:29.130Z,22.63
2019-01-10T05:17:59.278Z,26.50
2019-01-10T05:20:31.164Z,21.33
2019-01-10T05:23:03.141Z,17.93
2019-01-10T05:25:33.250Z,20.60
2019-01-10T05:28:06.476Z,19.60
2019-01-10T05:30:37.755Z,21.07
2019-01-10T05:33:12.471Z,19.23
2019-01-10T05:35:42.545Z,19.40
2019-01-10T05:38:12.670Z,23.70
2019-01-10T05:40:43.490Z,17.97
2019-01-10T05:43:15.929Z,21.20
2019-01-10T05:45:46.066Z,17.80
2019-01-10T05:48:17.897Z,18.90
2019-01-10T05:50:47.958Z,21.60
2019-01-10T05:53:19.302Z,21.83
2019-01-10T05:55:49.815Z,21.57
2019-01-10T05:58:20.730Z,20.87
2019-01-10T06:00:51.613Z,20.20
2019-01-10T06:03:22.264Z,18.23
2019-01-10T06:05:53.506Z,19.50
2019-01-10T06:08:23.523Z,21.37
2019-01-10T06:10:54.891Z,23.10
2019-01-10T06:13:31.077Z,20.43
2019-01-10T06:16:01.128Z,18.67
2019-01-10T06:18:32.367Z,22.93
2019-01-10T06:21:03.048Z,21.47
2019-01-10T06:23:33.990Z,20.43
2019-01-10T06:26:03.939Z,22.13
2019-01-10T06:28:34.340Z,18.63
2019-01-10T06:31:06.902Z,21.07
2019-01-10T06:33:37.055Z,23.10
2019-01-10T06:36:07.273Z,18.47
2019-01-10T06:38:39.140Z,21.43
2019-01-10T06:41:09.190Z,20.73
2019-01-10T06:43:39.302Z,19.33
2019-01-10T06:46:09.467Z,18.13
2019-01-10T06:48:40.952Z,23.03
2019-01-10T06:51:11.291Z,23.57
2019-01-10T06:53:42.437Z,22.60
2019-01-10T06:56:13.202Z,19.87
2019-01-10T06:58:47.578Z,18.33
2019-01-10T07:01:17.732Z,21.63
2019-01-10T07:03:47.969Z,23.43
2019-01-10T07:06:20.183Z,19.43
2019-01-10T07:08:50.426Z,20.63
2019-01-10T07:11:26.099Z,18.17
2019-01-10T07:13:55.767Z,20.50
2019-01-10T07:16:25.531Z,22.80
2019-01-10T07:18:57.958Z,21.13
2019-01-10T07:21:29.332Z,21.37
2019-01-10T07:23:59.050Z,20.20
2019-01-10T07:26:29.889Z,23.30
2019-01-10T07:28:59.693Z,23.80
2019-01-10T07:31:30.393Z,20.80
2019-01-10T07:34:04.294Z,19.50
2019-01-10T07:36:33.980Z,21.77
2019-01-10T07:39:05.036Z,26.60
2019-01-10T07:41:39.728Z,22.87
2019-01-10T07:44:10.143Z,30.40
2019-01-10T07:46:47.398Z,25.37
2019-01-10T07:49:21.676Z,28.27
2019-01-10T07:51:57.228Z,28.27
2019-01-10T07:54:29.491Z,22.70
2019-01-10T07:56:59.241Z,25.97
2019-01-10T07:59:49.738Z,31.07
2019-01-10T08:02:20.897Z,23.00
2019-01-10T08:04:51.715Z,24.37
2019-01-10T08:07:21.485Z,28.67
2019-01-10T08:09:53.786Z,29.60
2019-01-10T08:12:24.765Z,28.70
2019-01-10T08:14:56.860Z,28.40
2019-01-10T08:17:27.299Z,22.77
2019-01-10T08:20:00.979Z,24.70
2019-01-10T08:22:34.100Z,29.13
2019-01-10T08:25:08.809Z,23.17
2019-01-10T08:27:41.053Z,23.03
2019-01-10T08:30:17.113Z,27.57
2019-01-10T08:32:47.169Z,26.63
2019-01-10T08:35:19.030Z,22.37
2019-01-10T08:37:48.986Z,23.27
2019-01-10T08:40:18.823Z,25.97
2019-01-10T08:42:50.395Z,27.83
2019-01-10T08:45:21.785Z,26.30
2019-01-10T08:47:52.093Z,26.93
2019-01-10T08:50:24.890Z,26.07
2019-01-10T08:52:56.556Z,30.43
2019-01-10T08:55:26.828Z,27.37
2019-01-10T08:57:57.181Z,28.53
2019-01-10T09:00:35.655Z,26.70
2019-01-10T09:03:05.363Z,24.83
2019-01-10T09:05:36.505Z,27.80
2019-01-10T09:08:09.289Z,23.83
2019-01-10T09:10:40.531Z,21.27
2019-01-10T09:13:10.870Z,26.90
2019-01-10T09:15:40.563Z,28.30
2019-01-10T09:18:10.417Z,18.97
2019-01-10T09:20:40.220Z,26.40
2019-01-10T09:23:11.325Z,20.17
2019-01-10T09:25:41.430Z,26.33
2019-01-10T09:28:12.195Z,23.87
2019-01-10T09:30:42.392Z,22.83
2019-01-10T09:33:12.045Z,25.83
2019-01-10T09:35:41.720Z,25.97
2019-01-10T09:38:12.838Z,20.50
2019-01-10T09:40:43.644Z,20.20
2019-01-10T09:43:14.583Z,24.37
2019-01-10T09:45:44.359Z,24.40
2019-01-10T09:48:14.536Z,24.03
2019-01-10T09:50:44.212Z,22.20
2019-01-10T09:53:13.970Z,19.37
2019-01-10T09:55:43.748Z,25.67
2019-01-10T09:58:14.090Z,35.90
2019-01-10T10:00:44.346Z,28.27
2019-01-10T10:03:14.043Z,26.13
2019-01-10T10:05:43.852Z,14.70
2019-01-10T10:08:13.508Z,12.90
2019-01-10T10:10:43.428Z,10.17
2019-01-10T10:13:13.130Z,12.83
2019-01-10T10:15:52.042Z,9.83
2019-01-10T10:18:15.901Z,33.30
2019-01-10T10:20:45.955Z,19.90
2019-01-10T10:23:16.270Z,20.43
2019-01-10T10:25:48.171Z,13.37
2019-01-10T10:28:18.654Z,14.10
2019-01-10T10:30:49.168Z,15.47
2019-01-10T10:33:21.113Z,13.23
2019-01-10T10:35:56.047Z,12.07
2019-01-10T10:38:26.463Z,16.83
2019-01-10T10:41:01.471Z,16.67
2019-01-10T10:43:31.164Z,17.67
2019-01-10T10:46:04.658Z,16.10
2019-01-10T10:48:34.886Z,19.63
2019-01-10T10:51:07.000Z,18.03
2019-01-10T10:53:37.028Z,18.70
2019-01-10T10:56:08.696Z,19.70
2019-01-10T10:58:40.593Z,15.10
2019-01-10T11:01:12.188Z,20.03
2019-01-10T11:03:42.002Z,12.50
2019-01-10T11:06:11.820Z,14.90
2019-01-10T11:08:44.615Z,12.93
2019-01-10T11:11:14.487Z,11.17
2019-01-10T11:13:44.248Z,9.37
2019-01-10T11:16:14.308Z,12.53
2019-01-10T11:18:44.489Z,16.47
2019-01-10T11:21:14.190Z,12.77
2019-01-10T11:23:44.717Z,14.30
2019-01-10T11:26:16.238Z,10.87
2019-01-10T11:28:46.175Z,11.40
2019-01-10T11:31:18.488Z,12.30
2019-01-10T11:33:48.329Z,12.00
2019-01-10T11:36:18.780Z,11.53
2019-01-10T11:38:48.470Z,15.53
2019-01-10T11:41:18.422Z,9.63
2019-01-10T11:43:48.180Z,11.20
2019-01-10T11:46:19.685Z,11.77
2019-01-10T11:48:49.936Z,9.00
2019-01-10T11:51:19.766Z,14.00
2019-01-10T11:53:49.931Z,14.00
2019-01-10T11:56:19.662Z,10.63
2019-01-10T11:58:49.493Z,11.00
2019-01-10T12:01:19.186Z,13.43
2019-01-10T12:03:48.929Z,12.07
2019-01-10T12:06:18.608Z,14.50
2019-01-10T12:08:48.353Z,9.10
2019-01-10T12:11:18.181Z,14.20
2019-01-10T12:13:47.885Z,11.90
2019-01-10T12:16:17.608Z,11.70
2019-01-10T12:18:48.176Z,9.67
2019-01-10T12:21:18.428Z,13.10
2019-01-10T12:23:48.125Z,12.77
2019-01-10T12:26:17.862Z,22.43
2019-01-10T12:28:49.959Z,16.47
2019-01-10T12:31:19.730Z,15.40
2019-01-10T12:33:49.378Z,12.27
2019-01-10T12:36:19.431Z,13.07
2019-01-10T12:38:49.131Z,13.33
2019-01-10T12:41:19.120Z,13.80
2019-01-10T12:43:50.138Z,16.13
2019-01-10T12:46:19.953Z,14.07
2019-01-10T12:48:50.232Z,18.63
2019-01-10T12:51:19.912Z,17.80
2019-01-10T12:53:51.213Z,24.00
2019-01-10T12:56:20.871Z,21.37
2019-01-10T12:58:50.560Z,18.70
2019-01-10T13:01:22.562Z,17.87
2019-01-10T13:03:54.686Z,21.40
2019-01-10T13:06:25.442Z,19.63
2019-01-10T13:08:55.574Z,19.10
2019-01-10T13:11:25.271Z,19.70
2019-01-10T13:13:55.670Z,24.83
2019-01-10T13:16:25.906Z,18.00
2019-01-10T13:18:55.571Z,16.87
2019-01-10T13:21:30.201Z,17.40
2019-01-10T13:24:00.320Z,21.90
2019-01-10T13:26:30.419Z,17.40
2019-01-10T13:29:00.824Z,16.07
2019-01-10T13:31:30.501Z,13.83
2019-01-10T13:34:02.528Z,20.20
2019-01-10T13:36:32.241Z,19.80
2019-01-10T13:39:02.368Z,12.83
2019-01-10T13:41:32.478Z,14.33
2019-01-10T13:44:03.103Z,14.63
2019-01-10T13:46:34.777Z,18.33
2019-01-10T13:49:04.592Z,16.17
2019-01-10T13:51:34.762Z,14.93
2019-01-10T13:54:04.790Z,14.10
2019-01-10T13:56:34.787Z,17.10
2019-01-10T14:01:43.219Z,20.20
2019-01-10T14:06:42.601Z,17.33
2019-01-10T14:09:12.785Z,19.97
2019-01-10T14:11:42.578Z,13.93
2019-01-10T14:14:12.246Z,16.93
2019-01-10T14:16:42.324Z,18.13
2019-01-10T14:19:13.254Z,18.53
2019-01-10T14:21:46.628Z,20.90
2019-01-10T14:24:14.312Z,18.47
2019-01-10T14:26:46.684Z,18.57
2019-01-10T14:29:16.366Z,19.07
2019-01-10T14:31:46.016Z,22.20
2019-01-10T14:34:15.725Z,21.70
2019-01-10T14:36:46.135Z,17.53
2019-01-10T14:39:16.002Z,25.63
2019-01-10T14:41:45.927Z,21.33
2019-01-10T14:44:16.245Z,14.83
2019-01-10T14:46:54.299Z,18.37
2019-01-10T14:49:26.158Z,14.27
2019-01-10T14:51:57.703Z,16.17
2019-01-10T14:54:27.853Z,14.73
2019-01-10T14:56:58.279Z,11.93
2019-01-10T14:59:29.316Z,14.07
2019-01-10T15:02:00.006Z,15.73
2019-01-10T15:04:29.720Z,11.43
2019-01-10T15:07:00.124Z,16.90
2019-01-10T15:09:29.985Z,10.63
2019-01-10T15:11:59.798Z,16.97
2019-01-10T15:14:30.288Z,17.20
2019-01-10T15:17:03.883Z,15.83
2019-01-10T15:19:33.667Z,16.00
2019-01-10T15:22:03.568Z,14.87
2019-01-10T15:24:33.542Z,14.73
2019-01-10T15:27:03.460Z,14.53
2019-01-10T15:29:33.787Z,15.97
2019-01-10T15:32:03.896Z,12.17
2019-01-10T15:34:34.710Z,12.60
2019-01-10T15:37:04.594Z,13.27
2019-01-10T15:39:34.447Z,14.03
2019-01-10T15:42:05.251Z,11.37
2019-01-10T15:44:39.224Z,14.37
2019-01-10T15:47:09.061Z,14.87
2019-01-10T15:49:40.069Z,18.10
2019-01-10T15:52:10.363Z,14.77
2019-01-10T15:54:41.849Z,16.27
2019-01-10T15:57:14.115Z,13.37
2019-01-10T15:59:44.920Z,12.40
2019-01-10T16:02:14.940Z,11.37
2019-01-10T16:04:46.665Z,15.43
2019-01-10T16:07:16.759Z,10.60
2019-01-10T16:09:48.918Z,10.63
2019-01-10T16:12:19.888Z,11.00
2019-01-10T16:14:52.612Z,8.30
2019-01-10T16:17:31.903Z,7.63
2019-01-10T16:20:05.329Z,9.33
2019-01-10T16:22:36.241Z,10.07
2019-01-10T16:25:07.274Z,15.70
2019-01-10T16:27:36.960Z,15.97
2019-01-10T16:30:18.603Z,10.70
2019-01-10T16:32:50.311Z,11.53
2019-01-10T16:35:20.105Z,9.73
2019-01-10T16:37:54.990Z,14.23
2019-01-10T16:40:25.130Z,12.43
2019-01-10T16:42:55.516Z,8.33
2019-01-10T16:45:27.980Z,9.63
2019-01-10T16:47:57.766Z,14.10
2019-01-10T16:50:28.675Z,8.83
2019-01-10T16:52:59.039Z,7.37
2019-01-10T16:55:31.582Z,10.83
2019-01-10T16:58:01.904Z,9.37
2019-01-10T17:00:33.451Z,8.73
2019-01-10T17:03:07.067Z,15.70
2019-01-10T17:05:37.892Z,13.20
2019-01-10T17:08:07.758Z,12.87
2019-01-10T17:10:39.760Z,11.40
2019-01-10T17:13:09.442Z,10.20
2019-01-10T17:15:39.227Z,7.90
2019-01-10T17:18:09.274Z,18.13
2019-01-10T17:20:38.911Z,58.47
2019-01-10T17:23:09.799Z,12.27
2019-01-10T17:25:39.538Z,14.77
2019-01-10T17:28:09.188Z,13.90
2019-01-10T17:30:40.085Z,14.30
2019-01-10T17:33:09.735Z,13.27
2019-01-10T17:35:40.288Z,11.50
2019-01-10T17:38:10.070Z,12.00
2019-01-10T17:40:41.280Z,11.33
2019-01-10T17:43:13.823Z,10.57
2019-01-10T17:45:45.717Z,11.43
2019-01-10T17:48:15.756Z,11.70
2019-01-10T17:50:48.389Z,12.17
2019-01-10T17:53:18.315Z,10.27
2019-01-10T17:55:48.146Z,10.50
2019-01-10T17:58:17.979Z,9.90
2019-01-10T18:00:48.122Z,9.23
2019-01-10T18:03:17.861Z,8.53
2019-01-10T18:05:48.183Z,9.83
2019-01-10T18:08:19.375Z,10.73
2019-01-10T18:10:49.455Z,13.43
2019-01-10T18:13:19.168Z,13.03
2019-01-10T18:15:49.543Z,11.97
2019-01-10T18:18:21.338Z,17.60
2019-01-10T18:20:51.316Z,11.63
2019-01-10T18:23:21.077Z,9.43
2019-01-10T18:25:51.103Z,13.70
2019-01-10T18:28:22.833Z,13.00
2019-01-10T18:30:54.562Z,13.93
2019-01-10T18:33:25.589Z,14.30
2019-01-10T18:35:55.727Z,16.57
2019-01-10T18:38:26.395Z,12.20
2019-01-10T18:40:57.720Z,15.90
2019-01-10T18:43:28.114Z,13.17
2019-01-10T18:46:01.973Z,11.50
2019-01-10T18:48:31.846Z,13.37
2019-01-10T18:51:02.084Z,14.80
2019-01-10T18:53:31.755Z,14.47
2019-01-10T18:56:01.576Z,15.97
2019-01-10T18:58:31.643Z,14.23
2019-01-10T19:01:01.490Z,12.13
2019-01-10T19:03:31.210Z,13.23
2019-01-10T19:06:01.714Z,15.77
2019-01-10T19:08:34.710Z,12.90
2019-01-10T19:11:05.522Z,13.57
2019-01-10T19:13:35.998Z,14.67
2019-01-10T19:16:05.789Z,13.53
2019-01-10T19:18:40.352Z,18.90
2019-01-10T19:21:11.574Z,16.23
2019-01-10T19:23:48.399Z,12.83
2019-01-10T19:26:20.621Z,13.60
2019-01-10T19:28:50.367Z,13.93
2019-01-10T19:31:20.440Z,11.20
2019-01-10T19:33:51.406Z,15.80
2019-01-10T19:36:21.160Z,16.00
2019-01-10T19:38:50.915Z,13.87
2019-01-10T19:41:23.355Z,15.87
2019-01-10T19:43:53.277Z,15.90
2019-01-10T19:46:23.045Z,15.87
2019-01-10T19:48:53.069Z,15.63
2019-01-10T19:51:30.270Z,14.33
2019-01-10T19:54:00.443Z,12.20
2019-01-10T19:56:32.438Z,19.10
2019-01-10T19:59:11.419Z,11.60
2019-01-10T20:01:42.186Z,13.37
2019-01-10T20:04:19.488Z,14.33
2019-01-10T20:07:04.208Z,12.70
2019-01-10T20:09:34.369Z,15.47
2019-01-10T20:12:06.840Z,15.53
2019-01-10T20:14:40.115Z,13.93
2019-01-10T20:17:10.148Z,14.63
2019-01-10T20:19:41.178Z,12.67
2019-01-10T20:22:10.991Z,13.50
2019-01-10T20:24:41.920Z,14.67
2019-01-10T20:27:14.264Z,10.50
2019-01-10T20:29:43.914Z,15.30
2019-01-10T20:32:15.917Z,15.23
2019-01-10T20:34:45.703Z,14.67
2019-01-10T20:37:17.175Z,12.37
2019-01-10T20:39:48.664Z,13.67
2019-01-10T20:42:18.550Z,13.47
2019-01-10T20:44:48.458Z,12.10
2019-01-10T20:47:33.095Z,12.10
2019-01-10T20:50:02.545Z,13.83
2019-01-10T20:52:32.227Z,13.90
2019-01-10T20:55:02.632Z,10.87
2019-01-10T20:58:20.293Z,8.93
2019-01-10T21:00:53.683Z,14.53
2019-01-10T21:03:25.382Z,10.33
2019-01-10T21:05:55.074Z,9.37
2019-01-10T21:08:25.885Z,12.00
2019-01-10T21:10:55.997Z,12.03
2019-01-10T21:13:27.493Z,15.53
2019-01-10T21:15:59.075Z,11.23
2019-01-10T21:18:31.728Z,11.23
2019-01-10T21:21:32.597Z,10.63
2019-01-10T21:24:06.313Z,12.03
2019-01-10T21:26:38.625Z,12.60
2019-01-10T21:29:10.871Z,11.73
2019-01-10T21:31:42.531Z,11.07
2019-01-10T21:34:16.976Z,11.43
2019-01-10T21:36:47.441Z,11.90
2019-01-10T21:39:20.104Z,11.73
2019-01-10T21:41:52.845Z,13.50
2019-01-10T21:44:22.701Z,12.03
2019-01-10T21:46:52.916Z,10.20
2019-01-10T21:49:27.112Z,12.23
2019-01-10T21:52:20.392Z,8.47
2019-01-10T21:55:06.079Z,11.73
2019-01-10T21:57:35.834Z,11.97
2019-01-10T22:03:11.844Z,15.17
2019-01-10T22:05:49.718Z,13.43
2019-01-10T22:08:40.974Z,13.27
2019-01-10T22:14:29.029Z,11.03
2019-01-10T22:17:09.722Z,13.33
2019-01-10T22:20:17.844Z,10.93
2019-01-10T22:22:52.909Z,15.03
2019-01-10T22:28:23.564Z,17.57
2019-01-10T22:31:23.992Z,13.80
2019-01-10T22:34:37.367Z,15.67
2019-01-10T22:37:38.982Z,15.70
2019-01-10T22:40:26.846Z,15.27
2019-01-10T22:43:41.002Z,23.27
2019-01-10T22:46:22.970Z,18.17
2019-01-10T22:52:29.961Z,23.10
2019-01-10T22:55:35.000Z,26.13
2019-01-10T22:58:26.594Z,23.10
2019-01-10T23:02:03.400Z,20.80
2019-01-10T23:05:11.249Z,25.30
2019-01-10T23:08:48.381Z,22.60
2019-01-10T23:11:27.333Z,23.43
2019-01-10T23:14:08.124Z,22.27
2019-01-10T23:16:46.131Z,20.60
2019-01-10T23:19:17.660Z,22.83
2019-01-10T23:21:54.632Z,25.60
2019-01-10T23:24:31.087Z,22.10
2019-01-10T23:27:10.784Z,23.73
2019-01-10T23:30:04.856Z,17.07
2019-01-10T23:32:45.865Z,20.37
2019-01-10T23:35:21.669Z,22.37
2019-01-10T23:37:56.004Z,24.60
2019-01-10T23:40:31.216Z,19.93
2019-01-10T23:43:22.559Z,23.23
2019-01-10T23:45:53.946Z,20.77
2019-01-10T23:48:40.993Z,19.67
2019-01-10T23:51:21.985Z,16.53
2019-01-10T23:53:58.603Z,18.37
2019-01-10T23:56:57.066Z,16.10
2019-01-10T23:59:32.724Z,16.40
